createdAt,value
2022-09-02T00:02:18.862Z,49.83
2022-09-02T00:04:46.269Z,49.51
2022-09-02T00:07:15.807Z,48.69
2022-09-02T00:09:42.932Z,48.86
2022-09-02T00:12:11.156Z,50.28
2022-09-02T00:14:39.656Z,52.97
2022-09-02T00:17:07.167Z,54.26
2022-09-02T00:19:36.806Z,56.05
2022-09-02T00:22:04.643Z,55.79
2022-09-02T00:24:32.086Z,55.96
2022-09-02T00:26:59.336Z,55.58
2022-09-02T00:29:31.780Z,57.52
2022-09-02T00:31:59.134Z,58.02
2022-09-02T00:34:26.618Z,57.56
2022-09-02T00:36:53.602Z,57.35
2022-09-02T00:39:21.220Z,57.33
2022-09-02T00:41:48.588Z,56.42
2022-09-02T00:44:17.710Z,55.96
2022-09-02T00:46:45.854Z,54.69
2022-09-02T00:49:24.317Z,54.01
2022-09-02T00:51:54.841Z,54.80
2022-09-02T00:54:25.535Z,55.77
2022-09-02T00:56:55.636Z,57.54
2022-09-02T00:59:46.030Z,57.62
2022-09-02T01:02:13.677Z,57.42
2022-09-02T01:04:43.232Z,56.20
2022-09-02T01:07:10.505Z,54.58
2022-09-02T01:09:38.035Z,54.50
2022-09-02T01:12:05.747Z,53.96
2022-09-02T01:14:36.488Z,52.23
2022-09-02T01:17:04.013Z,52.59
2022-09-02T01:20:00.525Z,52.10
2022-09-02T01:22:31.158Z,51.04
2022-09-02T01:25:06.276Z,51.04
2022-09-02T01:27:33.833Z,50.03
2022-09-02T01:30:01.391Z,49.11
2022-09-02T01:32:30.097Z,49.11
2022-09-02T01:34:58.012Z,49.09
2022-09-02T01:37:26.443Z,49.18
2022-09-02T01:39:54.302Z,48.71
2022-09-02T01:42:21.932Z,48.93
2022-09-02T01:44:49.265Z,49.23
2022-09-02T01:47:20.001Z,49.33
2022-09-02T01:49:47.212Z,49.50
2022-09-02T01:52:16.081Z,49.62
2022-09-02T01:54:43.982Z,49.32
2022-09-02T01:57:11.513Z,48.60
2022-09-02T01:59:39.201Z,48.82
2022-09-02T02:02:07.491Z,49.04
2022-09-02T02:04:34.611Z,48.96
2022-09-02T02:07:02.600Z,49.50
2022-09-02T02:09:29.738Z,49.96
2022-09-02T02:11:56.843Z,50.07
2022-09-02T02:14:24.191Z,50.10
2022-09-02T02:16:51.676Z,49.80
2022-09-02T02:19:18.846Z,49.25
2022-09-02T02:21:46.087Z,49.02
2022-09-02T02:24:14.020Z,48.68
2022-09-02T02:26:41.121Z,48.26
2022-09-02T02:29:08.932Z,48.38
2022-09-02T02:31:38.668Z,48.26
2022-09-02T02:34:05.745Z,49.18
2022-09-02T02:36:33.305Z,48.83
2022-09-02T02:39:01.716Z,49.23
2022-09-02T02:41:33.019Z,49.64
2022-09-02T02:44:01.722Z,49.51
2022-09-02T02:46:31.294Z,48.83
2022-09-02T02:49:03.417Z,49.19
2022-09-02T02:51:30.657Z,49.13
2022-09-02T02:54:00.154Z,49.00
2022-09-02T02:56:28.692Z,48.88
2022-09-02T02:58:57.677Z,49.08
2022-09-02T03:01:24.783Z,49.03
2022-09-02T03:03:53.382Z,49.70
2022-09-02T03:06:23.936Z,49.56
2022-09-02T03:08:54.996Z,49.25
2022-09-02T03:11:27.922Z,48.96
2022-09-02T03:13:55.722Z,49.37
2022-09-02T03:16:24.070Z,49.58
2022-09-02T03:18:51.389Z,49.79
2022-09-02T03:21:19.521Z,51.07
2022-09-02T03:27:02.350Z,48.72
2022-09-02T03:29:29.459Z,48.83
2022-09-02T03:31:59.359Z,48.66
2022-09-02T03:34:27.100Z,48.16
2022-09-02T03:36:56.148Z,48.21
2022-09-02T03:39:23.581Z,47.38
2022-09-02T03:41:53.006Z,47.93
2022-09-02T03:44:21.907Z,48.21
2022-09-02T03:46:52.100Z,47.53
2022-09-02T03:49:19.449Z,47.75
2022-09-02T03:51:46.498Z,48.33
2022-09-02T03:54:16.964Z,48.20
2022-09-02T03:56:44.860Z,48.22
2022-09-02T03:59:12.876Z,48.42
2022-09-02T04:01:40.799Z,48.09
2022-09-02T04:04:08.520Z,48.33
2022-09-02T04:09:30.806Z,48.14
2022-09-02T04:11:58.506Z,48.27
2022-09-02T04:14:30.264Z,48.43
2022-09-02T04:17:00.673Z,48.24
2022-09-02T04:19:29.354Z,48.56
2022-09-02T04:21:56.464Z,48.18
2022-09-02T04:24:24.729Z,47.94
2022-09-02T04:26:57.649Z,47.18
2022-09-02T04:32:37.132Z,47.88
2022-09-02T04:35:07.500Z,48.08
2022-09-02T04:37:41.552Z,48.22
2022-09-02T04:40:11.117Z,48.67
2022-09-02T04:42:39.029Z,49.08
2022-09-02T04:45:09.618Z,49.03
2022-09-02T04:47:40.475Z,48.85
2022-09-02T04:57:54.041Z,48.63
2022-09-02T05:00:31.111Z,48.81
2022-09-02T05:03:15.307Z,48.25
2022-09-02T05:05:44.791Z,48.18
2022-09-02T05:08:24.088Z,48.42
2022-09-02T05:10:53.372Z,48.72
2022-09-02T05:13:20.321Z,48.54
2022-09-02T05:15:47.468Z,48.43
2022-09-02T05:18:14.999Z,48.93
2022-09-02T05:20:44.137Z,48.55
2022-09-02T05:23:13.550Z,47.97
2022-09-02T05:25:44.435Z,48.12
2022-09-02T05:28:36.764Z,47.40
2022-09-02T05:31:09.062Z,48.23
2022-09-02T05:33:39.301Z,48.51
2022-09-02T05:36:27.956Z,48.90
2022-09-02T05:38:55.159Z,49.26
2022-09-02T05:41:24.269Z,48.64
2022-09-02T05:43:53.239Z,48.72
2022-09-02T05:46:23.655Z,49.68
2022-09-02T05:49:10.939Z,49.35
2022-09-02T05:51:48.868Z,49.43
2022-09-02T05:54:35.140Z,49.73
2022-09-02T05:57:10.042Z,50.20
2022-09-02T05:59:42.707Z,50.18
2022-09-02T06:02:12.087Z,50.15
2022-09-02T06:04:41.845Z,50.62
2022-09-02T06:07:08.979Z,50.91
2022-09-02T06:09:41.939Z,50.70
2022-09-02T06:12:09.245Z,50.43
2022-09-02T06:14:38.095Z,50.50
2022-09-02T06:17:06.116Z,50.22
2022-09-02T06:19:34.590Z,50.21
2022-09-02T06:22:03.613Z,49.83
2022-09-02T06:24:32.023Z,49.96
2022-09-02T06:27:01.950Z,49.63
2022-09-02T06:32:28.679Z,50.36
2022-09-02T06:34:56.075Z,49.98
2022-09-02T06:37:23.653Z,50.30
2022-09-02T06:39:52.241Z,50.51
2022-09-02T06:42:21.032Z,51.03
2022-09-02T06:44:48.040Z,50.90
2022-09-02T06:47:16.356Z,50.76
2022-09-02T06:49:43.965Z,51.00
2022-09-02T06:52:13.794Z,51.25
2022-09-02T06:54:41.565Z,51.08
2022-09-02T07:00:00.013Z,50.92
2022-09-02T07:02:31.262Z,50.77
2022-09-02T07:05:10.553Z,50.97
2022-09-02T07:07:41.147Z,50.23
2022-09-02T07:10:11.667Z,49.96
2022-09-02T07:12:44.432Z,49.83
2022-09-02T07:15:23.107Z,49.69
2022-09-02T07:17:50.778Z,50.78
2022-09-02T07:20:17.974Z,51.61
2022-09-02T07:22:46.250Z,51.34
2022-09-02T07:25:14.368Z,50.77
2022-09-02T07:27:41.377Z,50.44
2022-09-02T07:30:09.426Z,50.79
2022-09-02T07:32:52.444Z,50.31
2022-09-02T07:35:20.830Z,51.27
2022-09-02T07:37:49.955Z,52.14
2022-09-02T07:40:17.630Z,52.85
2022-09-02T07:42:50.465Z,52.13
2022-09-02T07:45:18.159Z,52.78
2022-09-02T07:47:47.006Z,52.44
2022-09-02T07:50:18.517Z,51.78
2022-09-02T07:52:51.340Z,51.98
2022-09-02T07:55:20.364Z,52.57
2022-09-02T07:57:48.634Z,52.69
2022-09-02T08:00:18.585Z,53.88
2022-09-02T08:02:47.649Z,53.02
2022-09-02T08:05:17.834Z,52.53
2022-09-02T08:13:36.768Z,51.50
2022-09-02T08:16:05.466Z,50.06
2022-09-02T08:18:33.896Z,48.41
2022-09-02T08:21:01.922Z,47.82
2022-09-02T08:23:37.171Z,48.20
2022-09-02T08:26:18.754Z,47.57
2022-09-02T08:29:08.805Z,47.09
2022-09-02T08:31:39.616Z,46.22
2022-09-02T08:34:06.807Z,46.23
2022-09-02T08:36:34.323Z,45.86
2022-09-02T08:39:04.238Z,45.41
2022-09-02T08:41:45.050Z,45.74
2022-09-02T08:44:20.239Z,45.65
2022-09-02T08:46:48.935Z,44.29
2022-09-02T08:49:30.500Z,43.07
2022-09-02T08:52:01.061Z,44.35
2022-09-02T08:57:43.358Z,43.48
2022-09-02T09:00:13.731Z,43.78
2022-09-02T09:03:16.301Z,44.68
2022-09-02T09:05:54.877Z,43.13
2022-09-02T09:09:01.397Z,42.98
2022-09-02T09:11:44.594Z,42.20
2022-09-02T09:14:59.574Z,42.06
2022-09-02T09:17:39.688Z,42.50
2022-09-02T09:20:16.992Z,42.17
2022-09-02T09:22:44.628Z,41.85
2022-09-02T09:25:17.032Z,42.54
2022-09-02T09:27:50.079Z,42.84
2022-09-02T09:30:22.928Z,42.39
2022-09-02T09:33:00.446Z,42.04
2022-09-02T09:35:54.649Z,41.67
2022-09-02T09:38:32.458Z,41.96
2022-09-02T09:41:20.055Z,41.76
2022-09-02T09:43:47.164Z,41.46
2022-09-02T09:46:22.059Z,41.78
2022-09-02T09:48:51.307Z,40.65
2022-09-02T09:51:18.519Z,39.96
2022-09-02T09:53:45.890Z,40.60
2022-09-02T09:56:15.991Z,40.72
2022-09-02T09:58:46.143Z,40.00
2022-09-02T10:01:18.307Z,39.37
2022-09-02T10:04:32.325Z,39.65
2022-09-02T10:06:55.869Z,39.02
2022-09-02T10:09:37.694Z,39.81
2022-09-02T10:12:08.103Z,40.13
2022-09-02T10:14:42.745Z,38.99
2022-09-02T10:17:19.178Z,38.33
2022-09-02T10:22:59.991Z,37.30
2022-09-02T10:25:43.188Z,37.56
2022-09-02T10:28:35.227Z,38.30
2022-09-02T10:31:28.799Z,37.38
2022-09-02T10:34:16.454Z,37.93
2022-09-02T10:40:00.567Z,38.46
2022-09-02T10:42:50.980Z,38.25
2022-09-02T10:45:45.884Z,37.72
2022-09-02T10:48:35.910Z,38.32
2022-09-02T10:51:12.379Z,38.11
2022-09-02T10:54:15.175Z,37.83
2022-09-02T10:57:11.631Z,37.57
2022-09-02T10:59:54.033Z,37.33
2022-09-02T11:02:37.583Z,37.65
2022-09-02T11:05:15.721Z,37.72
2022-09-02T11:08:29.589Z,37.39
2022-09-02T11:10:58.729Z,37.45
2022-09-02T11:14:17.214Z,36.26
2022-09-02T11:17:14.765Z,37.14
2022-09-02T11:20:10.034Z,36.93
2022-09-02T11:25:44.648Z,35.88
2022-09-02T11:28:22.655Z,35.89
2022-09-02T11:31:23.472Z,36.20
2022-09-02T11:34:06.226Z,36.47
2022-09-02T11:36:59.057Z,35.58
2022-09-02T11:39:54.044Z,36.26
2022-09-02T11:43:03.335Z,35.93
2022-09-02T11:45:49.683Z,36.07
2022-09-02T11:48:59.501Z,36.01
2022-09-02T11:51:39.079Z,36.11
2022-09-02T11:54:10.603Z,35.95
2022-09-02T11:56:45.870Z,36.14
2022-09-02T12:02:40.793Z,35.87
2022-09-02T12:05:32.540Z,35.19
2022-09-02T12:08:09.572Z,35.17
2022-09-02T12:10:43.694Z,35.53
2022-09-02T12:13:31.995Z,35.28
2022-09-02T12:16:30.010Z,35.44
2022-09-02T12:18:58.407Z,35.83
2022-09-02T12:21:30.225Z,34.44
2022-09-02T12:24:00.756Z,34.48
2022-09-02T12:26:38.914Z,34.60
2022-09-02T12:29:33.385Z,34.53
2022-09-02T12:32:01.136Z,33.92
2022-09-02T12:34:28.794Z,34.25
2022-09-02T12:37:00.714Z,33.53
2022-09-02T12:39:27.991Z,33.59
2022-09-02T12:41:58.131Z,33.33
2022-09-02T12:45:05.273Z,33.78
2022-09-02T12:47:47.990Z,34.00
2022-09-02T12:50:33.410Z,33.70
2022-09-02T12:53:32.531Z,33.54
2022-09-02T12:56:06.511Z,33.25
2022-09-02T12:58:52.564Z,32.76
2022-09-02T13:01:25.628Z,32.64
2022-09-02T13:04:14.551Z,32.96
2022-09-02T13:07:31.344Z,33.43
2022-09-02T13:10:21.388Z,33.93
2022-09-02T13:13:23.470Z,33.59
2022-09-02T13:16:20.534Z,33.34
2022-09-02T13:19:06.245Z,33.87
2022-09-02T13:22:02.435Z,33.78
2022-09-02T13:24:51.378Z,33.84
2022-09-02T13:28:09.965Z,33.78
2022-09-02T13:31:22.901Z,33.83
2022-09-02T13:34:02.006Z,33.30
2022-09-02T13:36:43.973Z,33.56
2022-09-02T13:39:34.021Z,33.67
2022-09-02T13:42:14.701Z,33.97
2022-09-02T13:44:47.583Z,33.96
2022-09-02T13:47:33.659Z,34.04
2022-09-02T13:50:06.943Z,34.03
2022-09-02T13:53:20.008Z,34.18
2022-09-02T13:55:27.838Z,34.28
2022-09-02T13:58:05.332Z,34.90
2022-09-02T14:00:41.371Z,35.00
2022-09-02T14:03:13.555Z,34.88
2022-09-02T14:05:47.618Z,35.01
2022-09-02T14:08:18.715Z,34.22
2022-09-02T14:10:56.990Z,34.21
2022-09-02T14:13:24.694Z,34.75
2022-09-02T14:15:52.147Z,34.73
2022-09-02T14:18:22.371Z,34.44
2022-09-02T14:21:18.362Z,34.52
2022-09-02T14:23:51.098Z,34.88
2022-09-02T14:26:38.544Z,35.00
2022-09-02T14:29:07.955Z,34.14
2022-09-02T14:31:35.516Z,34.31
2022-09-02T14:34:03.231Z,34.45
2022-09-02T14:36:36.363Z,34.47
2022-09-02T14:39:24.835Z,34.41
2022-09-02T14:44:50.687Z,34.48
2022-09-02T14:47:21.297Z,34.42
2022-09-02T14:49:53.014Z,34.91
2022-09-02T14:52:42.010Z,34.93
2022-09-02T14:58:45.710Z,35.88
2022-09-02T15:01:15.415Z,35.55
2022-09-02T15:03:44.200Z,35.75
2022-09-02T15:06:15.162Z,35.88
2022-09-02T15:08:42.484Z,35.37
2022-09-02T15:11:14.663Z,35.50
2022-09-02T15:13:41.672Z,35.56
2022-09-02T15:16:09.227Z,35.60
2022-09-02T15:18:36.970Z,35.64
2022-09-02T15:21:05.546Z,35.50
2022-09-02T15:23:35.571Z,35.68
2022-09-02T15:26:31.227Z,35.35
2022-09-02T15:29:19.541Z,35.48
2022-09-02T15:31:48.728Z,35.46
2022-09-02T15:34:22.035Z,35.46
2022-09-02T15:36:49.771Z,35.78
2022-09-02T15:39:19.975Z,35.65
2022-09-02T15:47:17.188Z,36.41
2022-09-02T15:49:47.835Z,36.65
2022-09-02T15:52:14.907Z,38.05
2022-09-02T15:54:42.051Z,38.38
2022-09-02T15:59:52.632Z,38.55
2022-09-02T16:02:20.820Z,39.20
2022-09-02T16:04:48.246Z,39.65
2022-09-02T16:07:17.007Z,40.06
2022-09-02T16:09:45.055Z,40.55
2022-09-02T16:12:12.748Z,40.94
2022-09-02T16:14:42.438Z,41.61
2022-09-02T16:17:11.016Z,41.64
2022-09-02T16:19:39.795Z,42.01
2022-09-02T16:22:09.747Z,42.19
2022-09-02T16:24:37.139Z,42.78
2022-09-02T16:27:07.498Z,43.21
2022-09-02T16:29:37.395Z,43.46
2022-09-02T16:32:24.280Z,43.36
2022-09-02T16:34:51.873Z,42.75
2022-09-02T16:37:19.552Z,43.51
2022-09-02T16:39:47.039Z,43.62
2022-09-02T16:42:15.419Z,43.90
2022-09-02T16:44:42.785Z,44.38
2022-09-02T16:47:12.917Z,44.93
2022-09-02T16:49:51.014Z,44.41
2022-09-02T16:52:21.204Z,45.12
2022-09-02T16:54:53.076Z,45.28
2022-09-02T16:57:20.156Z,45.47
2022-09-02T16:59:49.622Z,45.49
2022-09-02T17:02:16.708Z,45.06
2022-09-02T17:04:44.524Z,44.94
2022-09-02T17:07:11.807Z,45.64
2022-09-02T17:09:44.202Z,45.42
2022-09-02T17:12:12.664Z,45.87
2022-09-02T17:14:41.347Z,46.11
2022-09-02T17:17:08.554Z,46.13
2022-09-02T17:19:37.010Z,46.24
2022-09-02T17:22:04.121Z,45.87
2022-09-02T17:24:31.801Z,46.04
2022-09-02T17:27:01.692Z,46.26
2022-09-02T17:29:48.509Z,46.22
2022-09-02T17:32:18.862Z,46.08
2022-09-02T17:34:52.039Z,46.22
2022-09-02T17:37:22.187Z,46.13
2022-09-02T17:39:49.797Z,46.37
2022-09-02T17:42:20.374Z,46.54
2022-09-02T17:50:42.860Z,46.75
2022-09-02T17:53:10.725Z,46.91
2022-09-02T17:55:37.980Z,47.12
2022-09-02T17:58:18.413Z,47.10
2022-09-02T18:00:55.282Z,46.47
2022-09-02T18:03:40.316Z,46.89
2022-09-02T18:06:26.193Z,46.47
2022-09-02T18:09:07.971Z,46.48
2022-09-02T18:11:39.144Z,46.94
2022-09-02T18:14:16.982Z,46.86
2022-09-02T18:17:23.685Z,46.57
2022-09-02T18:20:09.663Z,47.01
2022-09-02T18:23:03.320Z,46.73
2022-09-02T18:25:38.156Z,46.39
2022-09-02T18:28:38.236Z,46.33
2022-09-02T18:31:38.141Z,46.45
2022-09-02T18:34:32.393Z,46.46
2022-09-02T18:37:17.431Z,46.57
2022-09-02T18:39:54.074Z,46.28
2022-09-02T18:42:23.579Z,46.57
2022-09-02T18:45:07.610Z,46.71
2022-09-02T18:47:45.193Z,47.17
2022-09-02T18:50:47.404Z,46.99
2022-09-02T18:53:19.608Z,47.15
2022-09-02T18:55:51.779Z,47.28
2022-09-02T18:58:29.873Z,47.43
2022-09-02T19:01:00.258Z,47.33
2022-09-02T19:03:35.205Z,47.29
2022-09-02T19:06:06.565Z,46.99
2022-09-02T19:08:34.792Z,47.57
2022-09-02T19:11:06.941Z,47.33
2022-09-02T19:13:37.843Z,47.03
2022-09-02T19:16:05.694Z,47.17
2022-09-02T19:18:33.938Z,47.31
2022-09-02T19:21:05.090Z,47.36
2022-09-02T19:23:33.304Z,47.72
2022-09-02T19:26:02.882Z,47.61
2022-09-02T19:28:30.525Z,47.81
2022-09-02T19:31:04.091Z,47.52
2022-09-02T19:33:34.287Z,47.73
2022-09-02T19:36:01.375Z,47.94
2022-09-02T19:38:28.952Z,47.93
2022-09-02T19:41:01.815Z,47.68
2022-09-02T19:43:29.278Z,47.67
2022-09-02T19:45:56.841Z,47.53
2022-09-02T19:48:24.323Z,47.42
2022-09-02T19:50:54.607Z,48.15
2022-09-02T19:53:33.822Z,49.08
2022-09-02T19:56:01.464Z,50.68
2022-09-02T20:01:16.114Z,49.50
2022-09-02T20:03:43.234Z,49.76
2022-09-02T20:06:10.575Z,49.88
2022-09-02T20:08:39.935Z,50.03
2022-09-02T20:11:09.398Z,50.39
2022-09-02T20:13:41.306Z,50.27
2022-09-02T20:16:22.515Z,50.47
2022-09-02T20:18:51.211Z,49.88
2022-09-02T20:21:32.123Z,50.11
2022-09-02T20:24:04.521Z,49.54
2022-09-02T20:26:50.388Z,50.08
2022-09-02T20:29:56.687Z,49.51
2022-09-02T20:32:51.347Z,49.74
2022-09-02T20:35:34.314Z,49.32
2022-09-02T20:38:58.548Z,49.43
2022-09-02T20:41:58.524Z,50.47
2022-09-02T20:44:49.703Z,49.91
2022-09-02T20:47:26.822Z,49.70
2022-09-02T20:50:18.452Z,50.00
2022-09-02T20:53:19.358Z,52.72
2022-09-02T20:55:55.259Z,52.56
2022-09-02T20:58:50.913Z,52.19
2022-09-02T21:01:26.233Z,51.74
2022-09-02T21:04:16.404Z,51.48
2022-09-02T21:06:59.510Z,51.30
2022-09-02T21:09:49.195Z,50.34
2022-09-02T21:12:37.195Z,50.95
2022-09-02T21:15:39.045Z,52.20
2022-09-02T21:18:41.831Z,52.99
2022-09-02T21:21:20.913Z,51.69
2022-09-02T21:23:57.384Z,51.64
2022-09-02T21:27:09.496Z,51.61
2022-09-02T21:29:45.434Z,50.40
2022-09-02T21:32:40.744Z,50.73
2022-09-02T21:35:17.487Z,50.31
2022-09-02T21:37:45.791Z,50.38
2022-09-02T21:40:17.316Z,50.42
2022-09-02T21:42:47.326Z,50.15
2022-09-02T21:45:26.722Z,51.14
2022-09-02T21:48:23.002Z,50.68
2022-09-02T21:51:00.444Z,50.49
2022-09-02T21:54:10.804Z,50.50
2022-09-02T21:56:47.188Z,50.66
2022-09-02T21:59:35.737Z,50.47
2022-09-02T22:02:10.500Z,50.03
2022-09-02T22:05:09.336Z,49.88
2022-09-02T22:07:46.604Z,50.44
2022-09-02T22:10:32.470Z,50.79
2022-09-02T22:13:04.540Z,51.21
2022-09-02T22:15:59.791Z,51.37
2022-09-02T22:18:31.135Z,51.82
2022-09-02T22:21:03.893Z,52.00
2022-09-02T22:23:34.570Z,52.42
2022-09-02T22:26:11.361Z,51.97
2022-09-02T22:28:46.432Z,52.25
2022-09-02T22:31:53.664Z,52.19
2022-09-02T22:34:25.379Z,52.36
2022-09-02T22:37:00.701Z,52.96
2022-09-02T22:40:16.160Z,52.83
2022-09-02T22:42:48.498Z,52.14
2022-09-02T22:48:46.097Z,51.38
2022-09-02T22:51:47.443Z,50.59
2022-09-02T22:54:15.117Z,49.31
2022-09-02T22:57:01.049Z,48.29
2022-09-02T23:00:02.506Z,48.09
2022-09-02T23:02:45.712Z,48.22
2022-09-02T23:05:46.961Z,48.07
2022-09-02T23:08:21.181Z,47.43
2022-09-02T23:11:06.979Z,48.67
2022-09-02T23:14:13.762Z,48.48
2022-09-02T23:17:08.748Z,48.95
2022-09-02T23:19:59.108Z,48.94
2022-09-02T23:23:07.222Z,47.61
2022-09-02T23:25:47.695Z,48.14
2022-09-02T23:28:18.830Z,47.12
2022-09-02T23:31:28.084Z,46.97
2022-09-02T23:34:17.865Z,44.65
2022-09-02T23:36:55.138Z,45.88
2022-09-02T23:39:44.348Z,47.67
2022-09-02T23:42:16.108Z,47.34
2022-09-02T23:44:43.549Z,47.89
2022-09-02T23:47:13.463Z,47.81
2022-09-02T23:49:51.704Z,45.86
2022-09-02T23:52:44.245Z,44.90
2022-09-02T23:55:39.235Z,45.21
2022-09-02T23:58:34.306Z,46.45
